createdAt,value
2018-02-21T00:00:29.307Z,65.75
2018-02-21T00:02:56.360Z,56.80
2018-02-21T00:05:23.501Z,58.38
2018-02-21T00:07:50.555Z,66.43
2018-02-21T00:10:17.588Z,58.28
2018-02-21T00:12:44.049Z,66.45
2018-02-21T00:15:10.391Z,60.78
2018-02-21T00:17:36.718Z,71.80
2018-02-21T00:20:03.888Z,58.55
2018-02-21T00:22:30.162Z,63.55
2018-02-21T00:24:56.489Z,61.20
2018-02-21T00:27:23.508Z,69.80
2018-02-21T00:29:49.868Z,65.55
2018-02-21T00:32:16.919Z,59.33
2018-02-21T00:34:43.257Z,59.17
2018-02-21T00:37:10.271Z,63.92
2018-02-21T00:39:36.534Z,55.22
2018-02-21T00:42:03.568Z,65.40
2018-02-21T00:44:29.832Z,64.28
2018-02-21T00:46:56.129Z,70.62
2018-02-21T00:49:22.415Z,60.75
2018-02-21T00:51:48.688Z,61.10
2018-02-21T00:54:15.000Z,57.75
2018-02-21T00:56:41.277Z,64.43
2018-02-21T00:59:08.327Z,67.68
2018-02-21T01:01:34.626Z,60.15
2018-02-21T01:04:01.000Z,60.88
2018-02-21T01:06:27.271Z,59.42
2018-02-21T01:08:53.531Z,64.80
2018-02-21T01:11:20.563Z,65.55
2018-02-21T01:13:46.834Z,63.30
2018-02-21T01:16:13.140Z,58.13
2018-02-21T01:18:40.179Z,62.42
2018-02-21T01:21:07.218Z,73.12
2018-02-21T01:23:33.485Z,63.72
2018-02-21T01:25:59.759Z,70.53
2018-02-21T01:28:26.060Z,66.53
2018-02-21T01:30:52.344Z,59.40
2018-02-21T01:33:18.595Z,62.75
2018-02-21T01:35:44.877Z,62.22
2018-02-21T01:38:11.376Z,68.90
2018-02-21T01:40:37.675Z,68.60
2018-02-21T01:43:04.771Z,61.95
2018-02-21T01:45:31.045Z,66.05
2018-02-21T01:47:57.311Z,65.10
2018-02-21T01:50:23.635Z,66.07
2018-02-21T01:52:49.909Z,64.57
2018-02-21T01:55:16.160Z,66.10
2018-02-21T01:57:43.236Z,58.15
2018-02-21T02:00:09.504Z,71.57
2018-02-21T02:02:35.784Z,62.55
2018-02-21T02:05:02.827Z,65.15
2018-02-21T02:07:29.848Z,58.80
2018-02-21T02:09:56.145Z,60.95
2018-02-21T02:12:22.409Z,63.05
2018-02-21T02:14:48.705Z,62.78
2018-02-21T02:17:14.987Z,66.57
2018-02-21T02:19:42.065Z,62.28
2018-02-21T02:22:08.320Z,67.15
2018-02-21T02:24:34.593Z,56.13
2018-02-21T02:27:00.880Z,62.58
2018-02-21T02:29:27.888Z,62.75
2018-02-21T02:31:54.936Z,59.17
2018-02-21T02:34:21.948Z,61.85
2018-02-21T02:36:48.260Z,59.17
2018-02-21T02:39:26.695Z,64.90
2018-02-21T02:41:52.988Z,57.80
2018-02-21T02:44:19.248Z,64.60
2018-02-21T02:46:45.532Z,54.25
2018-02-21T02:49:11.828Z,57.72
2018-02-21T02:51:38.863Z,56.47
2018-02-21T02:54:05.155Z,55.30
2018-02-21T02:56:31.452Z,66.22
2018-02-21T02:58:58.496Z,61.65
2018-02-21T03:01:25.544Z,60.10
2018-02-21T03:03:51.857Z,61.53
2018-02-21T03:06:18.139Z,59.85
2018-02-21T03:08:44.416Z,59.92
2018-02-21T03:11:10.701Z,71.40
2018-02-21T03:13:36.992Z,60.47
2018-02-21T03:16:04.008Z,57.97
2018-02-21T03:18:30.310Z,54.47
2018-02-21T03:20:56.587Z,61.08
2018-02-21T03:23:22.854Z,56.97
2018-02-21T03:25:49.192Z,55.55
2018-02-21T03:28:15.489Z,65.12
2018-02-21T03:30:42.527Z,54.90
2018-02-21T03:33:08.879Z,60.70
2018-02-21T03:35:35.888Z,62.40
2018-02-21T03:38:02.195Z,58.90
2018-02-21T03:40:28.467Z,54.50
2018-02-21T03:42:55.479Z,63.47
2018-02-21T03:45:21.792Z,60.38
2018-02-21T03:47:48.071Z,59.28
2018-02-21T03:50:14.375Z,68.20
2018-02-21T03:52:40.688Z,60.08
2018-02-21T03:55:06.963Z,66.07
2018-02-21T03:57:33.235Z,57.90
2018-02-21T03:59:59.521Z,62.45
2018-02-21T04:02:25.805Z,67.65
2018-02-21T04:04:52.065Z,65.03
2018-02-21T04:07:18.345Z,69.70
2018-02-21T04:09:44.662Z,55.15
2018-02-21T04:12:10.984Z,54.45
2018-02-21T04:14:38.031Z,59.28
2018-02-21T04:17:04.288Z,63.87
2018-02-21T04:19:30.564Z,58.72
2018-02-21T04:21:56.839Z,60.30
2018-02-21T04:24:23.894Z,59.30
2018-02-21T04:26:50.224Z,62.72
2018-02-21T04:29:16.483Z,64.25
2018-02-21T04:31:42.793Z,53.30
2018-02-21T04:34:09.108Z,59.88
2018-02-21T04:36:36.153Z,60.10
2018-02-21T04:39:03.224Z,57.00
2018-02-21T04:41:29.550Z,61.10
2018-02-21T04:43:55.826Z,55.72
2018-02-21T04:46:22.135Z,61.10
2018-02-21T04:48:48.440Z,58.65
2018-02-21T04:51:14.700Z,54.60
2018-02-21T04:53:40.988Z,59.15
2018-02-21T04:59:19.949Z,60.83
2018-02-21T05:01:46.267Z,51.20
2018-02-21T05:04:12.535Z,54.78
2018-02-21T05:06:38.877Z,60.15
2018-02-21T05:09:05.230Z,59.13
2018-02-21T05:11:31.499Z,57.55
2018-02-21T05:13:57.795Z,59.45
2018-02-21T05:16:24.811Z,52.05
2018-02-21T05:18:51.107Z,45.63
2018-02-21T05:21:17.384Z,57.38
2018-02-21T05:23:43.690Z,63.17
2018-02-21T05:26:09.975Z,55.40
2018-02-21T05:28:36.988Z,59.67
2018-02-21T05:31:03.334Z,59.53
2018-02-21T05:33:29.671Z,63.10
2018-02-21T05:35:56.739Z,54.05
2018-02-21T05:38:23.775Z,57.28
2018-02-21T05:40:50.793Z,63.60
2018-02-21T05:43:17.064Z,64.03
2018-02-21T05:45:43.368Z,62.58
2018-02-21T05:48:10.413Z,63.45
2018-02-21T05:50:36.728Z,63.55
2018-02-21T05:53:03.017Z,57.62
2018-02-21T05:55:29.349Z,63.97
2018-02-21T05:57:55.673Z,68.20
2018-02-21T06:00:21.995Z,59.80
2018-02-21T06:02:48.317Z,56.13
2018-02-21T06:05:14.627Z,56.92
2018-02-21T06:07:40.904Z,66.35
2018-02-21T06:10:07.234Z,63.15
2018-02-21T06:12:33.518Z,67.50
2018-02-21T06:14:59.794Z,67.57
2018-02-21T06:17:26.158Z,78.53
2018-02-21T06:19:52.459Z,66.12
2018-02-21T06:22:18.724Z,62.03
2018-02-21T06:24:45.056Z,66.90
2018-02-21T06:27:11.352Z,58.17
2018-02-21T06:29:37.989Z,65.93
2018-02-21T06:32:04.309Z,69.20
2018-02-21T06:34:30.596Z,66.43
2018-02-21T06:36:56.908Z,75.25
2018-02-21T06:39:23.216Z,60.85
2018-02-21T06:41:49.520Z,65.07
2018-02-21T06:44:15.823Z,73.68
2018-02-21T06:46:42.847Z,65.10
2018-02-21T06:49:09.175Z,75.87
2018-02-21T06:51:36.297Z,67.22
2018-02-21T06:54:02.624Z,67.07
2018-02-21T06:56:28.915Z,69.53
2018-02-21T06:58:55.204Z,77.20
2018-02-21T07:01:21.499Z,76.28
2018-02-21T07:03:48.508Z,64.82
2018-02-21T07:06:14.839Z,73.70
2018-02-21T07:08:41.120Z,63.67
2018-02-21T07:11:07.447Z,78.65
2018-02-21T07:13:33.731Z,68.85
2018-02-21T07:16:00.020Z,76.43
2018-02-21T07:18:26.342Z,71.43
2018-02-21T07:20:52.688Z,66.07
2018-02-21T07:23:18.999Z,79.95
2018-02-21T07:25:45.344Z,69.43
2018-02-21T07:28:11.652Z,65.87
2018-02-21T07:30:37.980Z,75.40
2018-02-21T07:33:04.259Z,73.40
2018-02-21T07:35:30.551Z,69.65
2018-02-21T07:37:56.871Z,76.93
2018-02-21T07:40:23.150Z,65.87
2018-02-21T07:42:49.688Z,68.32
2018-02-21T07:45:15.991Z,64.75
2018-02-21T07:47:42.304Z,73.12
2018-02-21T07:50:08.614Z,75.82
2018-02-21T07:52:34.912Z,89.28
2018-02-21T07:55:01.233Z,74.12
2018-02-21T07:57:27.534Z,65.85
2018-02-21T07:59:53.810Z,71.03
2018-02-21T08:02:20.143Z,68.45
2018-02-21T08:04:47.213Z,76.40
2018-02-21T08:07:13.787Z,64.75
2018-02-21T08:09:40.140Z,82.90
2018-02-21T08:12:06.444Z,81.85
2018-02-21T08:14:32.747Z,82.00
2018-02-21T08:16:59.766Z,85.45
2018-02-21T08:19:26.068Z,72.93
2018-02-21T08:21:52.348Z,73.90
2018-02-21T08:24:19.423Z,71.30
2018-02-21T08:26:45.728Z,86.18
2018-02-21T08:29:12.776Z,82.03
2018-02-21T08:31:39.849Z,71.45
2018-02-21T08:34:06.123Z,77.00
2018-02-21T08:36:32.429Z,89.78
2018-02-21T08:38:58.740Z,71.45
2018-02-21T08:41:25.048Z,86.10
2018-02-21T08:43:52.125Z,83.47
2018-02-21T08:46:18.456Z,80.47
2018-02-21T08:48:44.783Z,78.65
2018-02-21T08:51:11.138Z,72.50
2018-02-21T08:53:37.441Z,97.90
2018-02-21T08:56:03.768Z,87.90
2018-02-21T08:58:30.071Z,92.62
2018-02-21T09:00:56.436Z,79.05
2018-02-21T09:03:22.728Z,79.78
2018-02-21T09:05:49.065Z,79.97
2018-02-21T09:08:16.140Z,87.47
2018-02-21T09:10:42.423Z,91.72
2018-02-21T09:13:09.472Z,80.38
2018-02-21T09:15:35.788Z,87.32
2018-02-21T09:18:02.104Z,71.87
2018-02-21T09:20:28.443Z,74.55
2018-02-21T09:22:54.712Z,90.00
2018-02-21T09:25:21.762Z,82.55
2018-02-21T09:27:48.067Z,71.30
2018-02-21T09:30:14.375Z,80.25
2018-02-21T09:32:40.711Z,80.65
2018-02-21T09:35:07.007Z,69.20
2018-02-21T09:37:34.051Z,68.72
2018-02-21T09:40:00.359Z,71.00
2018-02-21T09:42:26.685Z,71.53
2018-02-21T09:44:53.052Z,72.60
2018-02-21T09:47:19.352Z,74.90
2018-02-21T09:49:46.017Z,76.37
2018-02-21T09:52:12.324Z,76.50
2018-02-21T09:54:38.608Z,79.37
2018-02-21T09:57:04.964Z,71.07
2018-02-21T09:59:31.292Z,79.95
2018-02-21T10:01:57.542Z,72.25
2018-02-21T10:04:23.824Z,74.22
2018-02-21T10:06:50.104Z,75.37
2018-02-21T10:09:16.418Z,76.15
2018-02-21T10:11:42.681Z,73.75
2018-02-21T10:14:09.709Z,74.15
2018-02-21T10:16:35.995Z,74.45
2018-02-21T10:19:02.326Z,72.62
2018-02-21T10:21:28.643Z,69.68
2018-02-21T10:23:54.935Z,72.50
2018-02-21T10:26:21.315Z,73.22
2018-02-21T10:28:47.628Z,73.45
2018-02-21T10:31:14.679Z,69.65
2018-02-21T10:33:40.991Z,79.03
2018-02-21T10:36:08.018Z,77.55
2018-02-21T10:38:34.396Z,76.47
2018-02-21T10:41:01.442Z,83.37
2018-02-21T10:43:27.733Z,70.93
2018-02-21T10:45:54.811Z,79.32
2018-02-21T10:48:21.087Z,73.97
2018-02-21T10:50:47.383Z,65.63
2018-02-21T10:53:13.744Z,85.40
2018-02-21T10:55:40.042Z,77.40
2018-02-21T10:58:06.385Z,67.10
2018-02-21T11:00:38.907Z,70.27
2018-02-21T11:03:05.992Z,67.20
2018-02-21T11:05:32.289Z,71.00
2018-02-21T11:07:58.648Z,63.70
2018-02-21T11:10:24.928Z,72.43
2018-02-21T11:12:51.252Z,71.47
2018-02-21T11:15:17.611Z,69.30
2018-02-21T11:17:43.873Z,79.33
2018-02-21T11:20:10.177Z,80.33
2018-02-21T11:22:36.472Z,80.57
2018-02-21T11:25:02.772Z,70.30
2018-02-21T11:27:29.062Z,69.83
2018-02-21T11:29:55.345Z,74.10
2018-02-21T11:32:21.624Z,79.70
2018-02-21T11:34:47.920Z,75.93
2018-02-21T11:37:14.183Z,78.07
2018-02-21T11:39:41.251Z,79.03
2018-02-21T11:42:08.271Z,68.90
2018-02-21T11:44:34.651Z,74.10
2018-02-21T11:47:00.937Z,67.57
2018-02-21T11:49:27.204Z,77.77
2018-02-21T11:51:53.532Z,75.43
2018-02-21T11:54:19.829Z,74.13
2018-02-21T11:56:46.110Z,71.37
2018-02-21T11:59:13.136Z,71.73
2018-02-21T12:01:39.395Z,71.60
2018-02-21T12:04:05.671Z,67.50
2018-02-21T12:06:31.972Z,66.77
2018-02-21T12:08:58.263Z,63.70
2018-02-21T12:11:24.560Z,64.63
2018-02-21T12:13:51.609Z,59.30
2018-02-21T12:16:17.899Z,56.37
2018-02-21T12:18:44.169Z,56.90
2018-02-21T12:21:11.224Z,54.65
2018-02-21T12:23:38.266Z,57.95
2018-02-21T12:26:05.319Z,55.00
2018-02-21T12:28:31.893Z,55.77
2018-02-21T12:30:58.207Z,50.45
2018-02-21T12:33:24.559Z,50.23
2018-02-21T12:35:50.858Z,45.70
2018-02-21T12:38:17.884Z,46.13
2018-02-21T12:40:50.212Z,48.85
2018-02-21T12:43:16.528Z,47.22
2018-02-21T12:45:42.815Z,51.67
2018-02-21T12:48:10.216Z,52.00
2018-02-21T12:50:36.510Z,58.73
2018-02-21T12:53:03.560Z,45.80
2018-02-21T12:55:30.639Z,51.17
2018-02-21T12:57:57.624Z,51.77
2018-02-21T13:00:23.948Z,51.57
2018-02-21T13:02:50.220Z,55.25
2018-02-21T13:05:16.567Z,42.85
2018-02-21T13:07:42.905Z,43.50
2018-02-21T13:10:09.205Z,48.40
2018-02-21T13:12:36.264Z,44.33
2018-02-21T13:15:02.605Z,49.37
2018-02-21T13:17:28.902Z,39.73
2018-02-21T13:19:55.247Z,44.93
2018-02-21T13:22:22.330Z,38.30
2018-02-21T13:24:48.639Z,37.80
2018-02-21T13:27:15.685Z,43.43
2018-02-21T13:29:42.753Z,47.40
2018-02-21T13:32:09.092Z,45.90
2018-02-21T13:34:35.403Z,44.20
2018-02-21T13:37:01.751Z,50.87
2018-02-21T13:39:28.055Z,48.30
2018-02-21T13:41:55.099Z,46.40
2018-02-21T13:44:22.199Z,48.17
2018-02-21T13:46:48.508Z,47.63
2018-02-21T13:49:14.866Z,47.23
2018-02-21T13:51:41.335Z,51.00
2018-02-21T13:54:07.704Z,47.83
2018-02-21T13:56:33.995Z,51.70
2018-02-21T13:59:01.115Z,48.80
2018-02-21T14:01:28.192Z,45.90
2018-02-21T14:03:55.206Z,42.58
2018-02-21T14:06:21.514Z,47.60
2018-02-21T14:08:47.788Z,44.10
2018-02-21T14:11:14.089Z,37.10
2018-02-21T14:13:40.391Z,39.13
2018-02-21T14:16:06.753Z,39.17
2018-02-21T14:18:33.073Z,38.20
2018-02-21T14:20:59.355Z,36.93
2018-02-21T14:23:26.379Z,46.43
2018-02-21T14:25:52.675Z,67.67
2018-02-21T14:28:18.954Z,34.30
2018-02-21T14:30:45.460Z,36.00
2018-02-21T14:33:11.744Z,32.30
2018-02-21T14:35:38.760Z,34.83
2018-02-21T14:38:05.048Z,41.57
2018-02-21T14:40:31.331Z,34.30
2018-02-21T14:42:58.387Z,31.80
2018-02-21T14:45:24.702Z,39.87
2018-02-21T14:47:50.987Z,32.93
2018-02-21T14:50:17.308Z,35.60
2018-02-21T14:52:43.604Z,36.10
2018-02-21T14:55:09.939Z,34.42
2018-02-21T14:57:36.960Z,34.92
2018-02-21T15:00:03.296Z,37.50
2018-02-21T15:02:29.579Z,37.08
2018-02-21T15:04:55.951Z,32.55
2018-02-21T15:07:22.251Z,34.70
2018-02-21T15:09:48.537Z,39.00
2018-02-21T15:12:15.566Z,39.17
2018-02-21T15:14:41.876Z,39.25
2018-02-21T15:17:08.147Z,39.83
2018-02-21T15:19:35.268Z,35.58
2018-02-21T15:22:02.372Z,38.03
2018-02-21T15:24:28.673Z,34.80
2018-02-21T15:26:54.964Z,30.58
2018-02-21T15:29:21.284Z,35.47
2018-02-21T15:31:47.607Z,37.08
2018-02-21T15:34:13.943Z,29.15
2018-02-21T15:36:40.192Z,34.05
2018-02-21T15:39:06.491Z,38.70
2018-02-21T15:41:32.756Z,34.30
2018-02-21T15:43:59.044Z,29.90
2018-02-21T15:46:25.308Z,34.42
2018-02-21T15:48:51.620Z,42.80
2018-02-21T15:51:17.899Z,49.22
2018-02-21T15:53:44.195Z,40.95
2018-02-21T15:56:10.480Z,34.72
2018-02-21T15:58:36.789Z,45.92
2018-02-21T16:01:03.091Z,45.53
2018-02-21T16:03:29.360Z,37.00
2018-02-21T16:05:56.426Z,38.88
2018-02-21T16:08:22.766Z,43.55
2018-02-21T16:10:49.028Z,46.37
2018-02-21T16:13:15.299Z,41.45
2018-02-21T16:15:42.340Z,43.85
2018-02-21T16:18:08.723Z,41.10
2018-02-21T16:20:35.044Z,44.92
2018-02-21T16:23:01.370Z,52.78
2018-02-21T16:25:27.732Z,39.90
2018-02-21T16:27:54.035Z,47.25
2018-02-21T16:30:20.318Z,44.70
2018-02-21T16:32:46.628Z,49.05
2018-02-21T16:35:12.891Z,42.97
2018-02-21T16:37:39.159Z,48.75
2018-02-21T16:40:05.459Z,51.47
2018-02-21T16:42:32.491Z,48.97
2018-02-21T16:44:59.612Z,45.83
2018-02-21T16:47:25.914Z,45.53
2018-02-21T16:49:52.199Z,43.22
2018-02-21T16:52:19.332Z,44.85
2018-02-21T16:54:45.648Z,44.78
2018-02-21T16:57:11.943Z,49.15
2018-02-21T16:59:38.259Z,57.13
2018-02-21T17:02:05.307Z,47.72
2018-02-21T17:04:32.332Z,50.50
2018-02-21T17:06:58.631Z,40.75
2018-02-21T17:09:24.931Z,39.15
2018-02-21T17:11:51.195Z,37.33
2018-02-21T17:14:17.808Z,36.42
2018-02-21T17:16:44.123Z,39.25
2018-02-21T17:19:10.455Z,42.83
2018-02-21T17:21:36.784Z,35.85
2018-02-21T17:24:03.060Z,38.08
2018-02-21T17:26:29.379Z,35.83
2018-02-21T17:28:55.652Z,38.55
2018-02-21T17:31:22.685Z,31.30
2018-02-21T17:33:49.056Z,35.08
2018-02-21T17:36:15.400Z,36.60
2018-02-21T17:38:42.012Z,36.65
2018-02-21T17:41:14.431Z,36.17
2018-02-21T17:43:40.728Z,36.28
2018-02-21T17:46:07.017Z,37.90
2018-02-21T17:48:33.772Z,32.58
2018-02-21T17:51:00.830Z,32.40
2018-02-21T17:53:27.123Z,34.65
2018-02-21T17:55:53.428Z,41.65
2018-02-21T17:58:19.735Z,39.33
2018-02-21T18:00:46.018Z,37.85
2018-02-21T18:03:12.353Z,36.60
2018-02-21T18:05:38.608Z,39.45
2018-02-21T18:08:05.679Z,35.05
2018-02-21T18:10:31.976Z,36.45
2018-02-21T18:12:58.245Z,34.65
2018-02-21T18:15:24.626Z,32.92
2018-02-21T18:17:51.035Z,33.35
2018-02-21T18:20:17.341Z,35.90
2018-02-21T18:22:43.637Z,37.80
2018-02-21T18:25:10.132Z,37.58
2018-02-21T18:27:36.473Z,40.50
2018-02-21T18:30:03.206Z,42.20
2018-02-21T18:32:29.497Z,36.55
2018-02-21T18:34:55.821Z,40.05
2018-02-21T18:37:22.173Z,33.13
2018-02-21T18:39:48.460Z,37.33
2018-02-21T18:42:15.599Z,31.00
2018-02-21T18:44:41.896Z,34.72
2018-02-21T18:47:08.180Z,36.92
2018-02-21T18:49:34.514Z,40.53
2018-02-21T18:52:01.536Z,39.92
2018-02-21T18:54:27.833Z,34.47
2018-02-21T18:56:54.153Z,32.80
2018-02-21T18:59:20.444Z,42.50
2018-02-21T19:01:47.516Z,38.08
2018-02-21T19:04:13.827Z,38.45
2018-02-21T19:06:40.126Z,36.85
2018-02-21T19:09:06.420Z,40.15
2018-02-21T19:11:32.716Z,38.88
2018-02-21T19:13:59.781Z,43.65
2018-02-21T19:16:26.064Z,41.90
2018-02-21T19:18:52.343Z,36.80
2018-02-21T19:21:19.396Z,41.95
2018-02-21T19:23:45.704Z,33.25
2018-02-21T19:26:12.763Z,38.65
2018-02-21T19:28:39.790Z,37.00
2018-02-21T19:31:06.100Z,41.00
2018-02-21T19:33:32.403Z,38.95
2018-02-21T19:35:58.687Z,41.42
2018-02-21T19:38:25.728Z,36.90
2018-02-21T19:40:52.972Z,35.80
2018-02-21T19:43:19.300Z,40.67
2018-02-21T19:45:45.587Z,35.28
2018-02-21T19:48:11.875Z,40.78
2018-02-21T19:50:38.445Z,44.08
2018-02-21T19:53:04.755Z,47.38
2018-02-21T19:55:31.776Z,37.58
2018-02-21T19:57:58.063Z,38.63
2018-02-21T20:00:24.344Z,40.78
2018-02-21T20:02:50.643Z,36.80
2018-02-21T20:05:16.936Z,39.67
2018-02-21T20:07:43.220Z,42.30
2018-02-21T20:10:09.530Z,43.05
2018-02-21T20:12:35.830Z,60.40
2018-02-21T20:15:02.522Z,62.08
2018-02-21T20:17:28.858Z,35.58
2018-02-21T20:19:55.163Z,46.63
2018-02-21T20:22:21.491Z,36.38
2018-02-21T20:24:47.765Z,38.38
2018-02-21T20:27:14.871Z,43.87
2018-02-21T20:29:41.144Z,41.40
2018-02-21T20:32:07.430Z,38.58
2018-02-21T20:34:33.728Z,37.72
2018-02-21T20:37:00.015Z,42.90
2018-02-21T20:39:26.632Z,37.63
2018-02-21T20:41:52.919Z,43.17
2018-02-21T20:44:19.946Z,35.08
2018-02-21T20:46:46.274Z,33.13
2018-02-21T20:49:12.545Z,40.38
2018-02-21T20:51:38.856Z,36.70
2018-02-21T20:54:06.188Z,35.60
2018-02-21T20:56:32.456Z,39.80
2018-02-21T20:58:58.823Z,40.12
2018-02-21T21:01:25.109Z,46.88
2018-02-21T21:03:51.494Z,40.88
2018-02-21T21:06:17.805Z,43.03
2018-02-21T21:08:44.097Z,48.22
2018-02-21T21:11:10.394Z,35.83
2018-02-21T21:13:38.495Z,37.47
2018-02-21T21:16:04.843Z,37.97
2018-02-21T21:18:31.187Z,37.38
2018-02-21T21:20:57.511Z,38.47
2018-02-21T21:23:23.871Z,43.10
2018-02-21T21:25:50.172Z,39.28
2018-02-21T21:28:16.480Z,32.45
2018-02-21T21:30:42.802Z,38.97
2018-02-21T21:33:09.147Z,32.72
2018-02-21T21:35:35.471Z,30.42
2018-02-21T21:38:01.815Z,42.08
2018-02-21T21:40:28.127Z,35.53
2018-02-21T21:42:55.155Z,33.00
2018-02-21T21:45:21.433Z,35.67
2018-02-21T21:47:47.777Z,39.85
2018-02-21T21:50:14.059Z,43.30
2018-02-21T21:52:40.428Z,33.33
2018-02-21T21:55:06.743Z,37.63
2018-02-21T21:57:33.008Z,47.33
2018-02-21T21:59:59.337Z,39.25
2018-02-21T22:02:25.624Z,39.03
2018-02-21T22:04:51.997Z,58.80
2018-02-21T22:07:18.259Z,51.05
2018-02-21T22:09:44.534Z,49.67
2018-02-21T22:12:10.823Z,53.15
2018-02-21T22:14:37.115Z,52.95
2018-02-21T22:17:03.508Z,42.33
2018-02-21T22:19:30.527Z,45.83
2018-02-21T22:21:56.803Z,33.50
2018-02-21T22:24:23.087Z,39.53
2018-02-21T22:26:49.667Z,42.65
2018-02-21T22:29:15.999Z,43.15
2018-02-21T22:31:42.335Z,42.17
2018-02-21T22:34:08.669Z,38.55
2018-02-21T22:36:34.949Z,40.78
2018-02-21T22:39:01.243Z,43.55
2018-02-21T22:41:27.552Z,44.58
2018-02-21T22:43:53.859Z,35.80
2018-02-21T22:46:20.915Z,43.95
2018-02-21T22:48:47.215Z,39.75
2018-02-21T22:51:13.486Z,33.97
2018-02-21T22:53:39.787Z,43.47
2018-02-21T22:56:06.065Z,42.67
2018-02-21T22:58:32.347Z,41.35
2018-02-21T23:00:59.383Z,41.58
2018-02-21T23:03:25.647Z,39.70
2018-02-21T23:05:52.219Z,35.80
2018-02-21T23:08:18.506Z,42.40
2018-02-21T23:10:45.580Z,40.10
2018-02-21T23:13:11.882Z,41.03
2018-02-21T23:15:38.890Z,43.33
2018-02-21T23:18:06.034Z,44.00
2018-02-21T23:20:32.299Z,44.17
2018-02-21T23:22:59.312Z,36.78
2018-02-21T23:25:25.624Z,40.88
2018-02-21T23:27:51.898Z,49.90
2018-02-21T23:30:18.194Z,39.85
2018-02-21T23:32:44.473Z,36.33
2018-02-21T23:35:11.489Z,37.60
2018-02-21T23:37:37.776Z,36.28
2018-02-21T23:40:04.054Z,40.47
2018-02-21T23:42:30.388Z,41.70
2018-02-21T23:44:57.448Z,45.67
2018-02-21T23:47:23.871Z,46.58
2018-02-21T23:49:50.228Z,38.65
2018-02-21T23:52:16.504Z,42.58
2018-02-21T23:54:42.823Z,35.65
2018-02-21T23:57:09.109Z,37.55
2018-02-21T23:59:35.360Z,42.65
